Time;durP1;ratioP1;P1;durP2;ratioP2;P2;SDS_P1;SDS_P2;PMS_P1;PMS_P2;Temp;Humidity;BMP_temperature;BMP_pressure;BME280_temperature;BME280_humidity;BME280_pressure;Samples;Min_cycle;Max_cycle;Signal;HPM_P1;HPM_P2
2022/03/03 00:00:03;;;;;;;19.80;10.63;;;;;;;;;;5031689;28;20160;-80
2022/03/03 00:02:30;;;;;;;19.13;10.02;;;;;;;;;;5031842;28;20037;-81
2022/03/03 00:05:01;;;;;;;18.33;9.73;;;;;;;;;;5031820;28;20036;-80
2022/03/03 00:07:28;;;;;;;24.08;11.00;;;;;;;;;;5014835;28;20063;-80
2022/03/03 00:10:07;;;;;;;18.67;10.13;;;;;;;;;;5031417;28;20032;-81
2022/03/03 00:12:36;;;;;;;24.00;10.73;;;;;;;;;;5031406;28;20053;-80
2022/03/03 00:15:03;;;;;;;22.63;10.80;;;;;;;;;;5031451;28;20083;-80
2022/03/03 00:17:31;;;;;;;21.30;11.48;;;;;;;;;;5031460;28;20068;-80
2022/03/03 00:20:06;;;;;;;21.80;12.10;;;;;;;;;;5031424;28;20100;-80
2022/03/03 00:22:44;;;;;;;22.60;11.13;;;;;;;;;;5020673;28;20141;-81
2022/03/03 00:25:18;;;;;;;22.20;10.73;;;;;;;;;;5011541;28;20362;-81
2022/03/03 00:27:45;;;;;;;23.52;10.90;;;;;;;;;;5070959;28;20033;-80
2022/03/03 00:30:14;;;;;;;22.42;10.95;;;;;;;;;;5073351;28;20020;-80
2022/03/03 00:32:40;;;;;;;19.85;10.90;;;;;;;;;;5073215;28;20020;-80
2022/03/03 00:35:10;;;;;;;22.40;11.52;;;;;;;;;;5073129;28;20036;-80
2022/03/03 00:37:50;;;;;;;25.05;11.77;;;;;;;;;;5073051;28;20067;-80
2022/03/03 00:40:32;;;;;;;22.88;11.50;;;;;;;;;;5073051;28;20026;-80
2022/03/03 00:43:06;;;;;;;24.67;11.55;;;;;;;;;;5072823;28;20098;-80
2022/03/03 00:45:38;;;;;;;22.02;11.43;;;;;;;;;;5072946;28;20021;-80
2022/03/03 00:48:13;;;;;;;24.77;12.23;;;;;;;;;;5072277;28;20036;-80
2022/03/03 00:51:11;;;;;;;20.70;10.45;;;;;;;;;;5073136;28;20093;-80
2022/03/03 00:53:41;;;;;;;23.98;11.60;;;;;;;;;;5072719;28;20016;-80
2022/03/03 00:56:12;;;;;;;23.98;12.52;;;;;;;;;;5072882;28;20024;-80
2022/03/03 00:58:58;;;;;;;21.02;11.82;;;;;;;;;;5072734;28;20025;-80
2022/03/03 01:01:35;;;;;;;23.38;10.88;;;;;;;;;;5072859;28;20028;-80
2022/03/03 01:04:01;;;;;;;25.70;11.30;;;;;;;;;;5089808;28;20108;-80
2022/03/03 01:06:27;;;;;;;20.27;10.73;;;;;;;;;;5092682;28;20032;-80
2022/03/03 01:08:56;;;;;;;21.90;11.30;;;;;;;;;;5091350;28;20020;-80
2022/03/03 01:11:26;;;;;;;21.90;10.85;;;;;;;;;;5092651;28;20039;-80
2022/03/03 01:14:04;;;;;;;25.35;11.82;;;;;;;;;;5092720;28;20024;-80
2022/03/03 01:16:40;;;;;;;;;;;;;;;;;;;;;
2022/03/03 01:22:18;;;;;;;22.30;11.73;;;;;;;;;;4982419;28;20362;-80
2022/03/03 01:24:47;;;;;;;24.98;11.77;;;;;;;;;;4971417;28;20138;-80
2022/03/03 01:27:16;;;;;;;22.38;11.38;;;;;;;;;;4971454;28;20043;-80
2022/03/03 01:29:42;;;;;;;30.55;12.82;;;;;;;;;;4971389;28;20029;-80
2022/03/03 01:32:22;;;;;;;26.35;12.35;;;;;;;;;;4971658;28;20027;-80
2022/03/03 01:34:51;;;;;;;24.50;12.32;;;;;;;;;;4971515;28;20035;-80
2022/03/03 01:37:26;;;;;;;24.95;11.98;;;;;;;;;;4971447;28;20173;-80
2022/03/03 01:39:52;;;;;;;23.45;12.18;;;;;;;;;;4971312;28;20134;-80
2022/03/03 01:42:28;;;;;;;23.02;11.77;;;;;;;;;;4971262;28;20043;-79
2022/03/03 01:44:54;;;;;;;23.73;11.93;;;;;;;;;;4971146;28;20039;-80
2022/03/03 01:47:23;;;;;;;23.60;11.70;;;;;;;;;;4973812;28;20465;-80
2022/03/03 01:49:53;;;;;;;25.33;11.77;;;;;;;;;;4971348;28;20177;-80
2022/03/03 01:52:22;;;;;;;24.15;12.13;;;;;;;;;;4971557;28;20097;-80
2022/03/03 01:55:00;;;;;;;26.48;11.80;;;;;;;;;;4971139;28;20039;-80
2022/03/03 01:57:32;;;;;;;25.58;11.98;;;;;;;;;;4971163;28;20466;-80
2022/03/03 01:59:59;;;;;;;26.60;11.68;;;;;;;;;;5060801;28;20910;-80
2022/03/03 02:02:27;;;;;;;25.95;12.07;;;;;;;;;;5076052;28;20052;-80
2022/03/03 02:05:08;;;;;;;27.45;12.00;;;;;;;;;;5076056;28;20021;-80
2022/03/03 02:07:35;;;;;;;24.40;11.50;;;;;;;;;;5076106;28;20031;-80
2022/03/03 02:10:02;;;;;;;25.13;12.98;;;;;;;;;;5075954;28;20445;-80
2022/03/03 02:12:30;;;;;;;28.08;12.35;;;;;;;;;;5076003;28;20645;-80
2022/03/03 02:14:59;;;;;;;27.33;11.90;;;;;;;;;;5075931;28;20565;-80
2022/03/03 02:17:25;;;;;;;26.73;12.70;;;;;;;;;;5075756;28;20455;-80
2022/03/03 02:19:57;;;;;;;25.70;12.35;;;;;;;;;;5075663;28;20031;-80
2022/03/03 02:22:23;;;;;;;23.08;12.02;;;;;;;;;;5075763;28;20040;-80
2022/03/03 02:24:52;;;;;;;26.00;11.77;;;;;;;;;;5075537;28;20112;-80
2022/03/03 02:27:24;;;;;;;24.80;12.18;;;;;;;;;;5075762;28;20423;-80
2022/03/03 02:32:51;;;;;;;23.60;11.65;;;;;;;;;;5033160;28;20041;-80
2022/03/03 02:35:20;;;;;;;26.80;12.57;;;;;;;;;;5033308;28;20163;-80
2022/03/03 02:37:47;;;;;;;26.58;12.35;;;;;;;;;;5033493;28;20121;-79
2022/03/03 02:40:34;;;;;;;28.45;12.55;;;;;;;;;;5033305;28;20030;-80
2022/03/03 02:43:09;;;;;;;26.27;13.30;;;;;;;;;;5032895;28;20132;-80
2022/03/03 02:45:35;;;;;;;25.10;12.57;;;;;;;;;;5033159;28;20869;-80
2022/03/03 02:48:01;;;;;;;22.67;11.88;;;;;;;;;;5049212;28;20040;-80
2022/03/03 02:50:30;;;;;;;24.80;12.00;;;;;;;;;;5052743;28;20033;-80
2022/03/03 02:53:04;;;;;;;27.25;12.23;;;;;;;;;;5052967;28;20029;-80
2022/03/03 02:55:42;;;;;;;26.15;12.65;;;;;;;;;;5052641;28;20025;-80
2022/03/03 02:58:13;;;;;;;25.67;12.18;;;;;;;;;;5052864;28;20516;-80
2022/03/03 03:00:47;;;;;;;24.63;12.52;;;;;;;;;;5052565;28;20506;-79
2022/03/03 03:03:16;;;;;;;31.88;12.07;;;;;;;;;;5052626;28;20036;-80
2022/03/03 03:05:49;;;;;;;25.15;12.32;;;;;;;;;;5052763;28;20475;-80
2022/03/03 03:08:35;;;;;;;24.02;13.07;;;;;;;;;;5052311;28;20514;-79
2022/03/03 03:11:04;;;;;;;23.77;11.68;;;;;;;;;;5093079;28;20028;-80
2022/03/03 03:13:33;;;;;;;29.67;12.77;;;;;;;;;;5094949;28;20478;-80
2022/03/03 03:16:01;;;;;;;23.02;11.95;;;;;;;;;;5094799;28;20101;-79
2022/03/03 03:18:28;;;;;;;27.45;12.75;;;;;;;;;;5094952;28;20161;-80
2022/03/03 03:20:54;;;;;;;33.42;13.43;;;;;;;;;;5094786;28;20028;-79
2022/03/03 03:23:23;;;;;;;24.98;12.35;;;;;;;;;;5077205;28;20085;-80
2022/03/03 03:25:54;;;;;;;22.23;11.20;;;;;;;;;;5074501;28;20036;-80
2022/03/03 03:28:21;;;;;;;22.20;11.73;;;;;;;;;;5074112;28;20443;-80
2022/03/03 03:30:47;;;;;;;23.92;12.27;;;;;;;;;;5074090;28;20489;-80
2022/03/03 03:33:32;;;;;;;26.20;12.45;;;;;;;;;;5074149;28;20048;-80
2022/03/03 03:35:58;;;;;;;29.88;12.00;;;;;;;;;;5089536;28;20028;-80
2022/03/03 03:38:26;;;;;;;24.65;12.02;;;;;;;;;;5094421;28;20538;-80
2022/03/03 03:40:55;;;;;;;24.50;11.88;;;;;;;;;;5094228;28;20405;-80
2022/03/03 03:43:21;;;;;;;25.55;12.07;;;;;;;;;;5094209;28;20393;-80
2022/03/03 03:45:47;;;;;;;23.15;11.25;;;;;;;;;;5092826;28;20031;-80
2022/03/03 03:48:16;;;;;;;24.67;12.00;;;;;;;;;;5091164;28;20034;-80
2022/03/03 03:50:50;;;;;;;25.75;12.60;;;;;;;;;;5092685;28;20028;-80
2022/03/03 03:53:19;;;;;;;26.00;12.50;;;;;;;;;;5094241;28;20100;-80
2022/03/03 03:55:48;;;;;;;23.05;12.55;;;;;;;;;;5094230;28;20485;-80
2022/03/03 03:58:14;;;;;;;26.35;12.63;;;;;;;;;;5094113;28;20343;-80
2022/03/03 04:00:43;;;;;;;25.98;12.65;;;;;;;;;;5094103;28;20096;-80
2022/03/03 04:03:12;;;;;;;24.02;12.05;;;;;;;;;;5094264;28;20028;-80
2022/03/03 04:05:40;;;;;;;25.65;12.38;;;;;;;;;;5094267;28;20198;-80
2022/03/03 04:08:09;;;;;;;23.77;12.50;;;;;;;;;;5092238;28;20032;-80
2022/03/03 04:10:35;;;;;;;25.27;12.25;;;;;;;;;;5093940;28;20459;-80
2022/03/03 04:13:12;;;;;;;24.80;12.32;;;;;;;;;;5094095;28;20031;-80
2022/03/03 04:15:58;;;;;;;24.83;12.05;;;;;;;;;;5092397;28;20027;-80
2022/03/03 04:18:30;;;;;;;26.05;13.55;;;;;;;;;;5092508;28;20409;-79
2022/03/03 04:20:56;;;;;;;23.98;11.88;;;;;;;;;;5093758;28;20030;-80
2022/03/03 04:23:25;;;;;;;28.80;11.85;;;;;;;;;;5092807;28;20496;-80
2022/03/03 04:25:51;;;;;;;27.45;13.35;;;;;;;;;;5093741;28;20382;-80
2022/03/03 04:28:25;;;;;;;25.02;12.65;;;;;;;;;;5093482;28;20035;-80
2022/03/03 04:31:02;;;;;;;23.67;12.60;;;;;;;;;;5093825;28;20016;-80
2022/03/03 04:33:28;;;;;;;21.80;12.02;;;;;;;;;;5093841;28;20016;-80
2022/03/03 04:35:59;;;;;;;23.88;11.98;;;;;;;;;;5093777;28;20140;-80
2022/03/03 04:38:29;;;;;;;24.42;12.98;;;;;;;;;;5093681;28;20031;-80
2022/03/03 04:41:00;;;;;;;23.13;12.55;;;;;;;;;;5093699;28;20054;-81
2022/03/03 04:43:29;;;;;;;24.48;12.43;;;;;;;;;;5091907;28;20040;-80
2022/03/03 04:45:59;;;;;;;27.55;12.70;;;;;;;;;;5093785;28;20051;-80
2022/03/03 04:48:29;;;;;;;24.55;12.45;;;;;;;;;;5076350;28;20028;-80
2022/03/03 04:51:08;;;;;;;23.17;12.27;;;;;;;;;;5073529;28;20025;-81
2022/03/03 04:53:37;;;;;;;27.23;12.80;;;;;;;;;;5073340;28;20021;-80
2022/03/03 04:56:09;;;;;;;22.60;11.40;;;;;;;;;;5073493;28;20021;-80
2022/03/03 04:58:38;;;;;;;22.95;12.05;;;;;;;;;;5073142;28;20055;-80
2022/03/03 05:01:07;;;;;;;21.52;10.98;;;;;;;;;;5073177;28;20305;-81
2022/03/03 05:03:34;;;;;;;30.30;12.40;;;;;;;;;;5082174;28;20049;-80
2022/03/03 05:06:05;;;;;;;23.92;11.73;;;;;;;;;;5092047;28;20111;-80
2022/03/03 05:08:31;;;;;;;24.67;11.65;;;;;;;;;;5093086;28;20028;-80
2022/03/03 05:11:02;;;;;;;28.60;13.32;;;;;;;;;;5093269;28;20024;-79
2022/03/03 05:13:29;;;;;;;25.27;13.38;;;;;;;;;;5093390;28;20027;-80
2022/03/03 05:15:55;;;;;;;25.13;12.35;;;;;;;;;;5093060;28;20021;-80
2022/03/03 05:18:22;;;;;;;26.73;13.38;;;;;;;;;;5092684;28;20397;-80
2022/03/03 05:20:52;;;;;;;23.05;12.40;;;;;;;;;;5092629;28;20032;-80
2022/03/03 05:23:20;;;;;;;25.67;12.50;;;;;;;;;;5092909;28;20028;-80
2022/03/03 05:25:49;;;;;;;25.60;13.77;;;;;;;;;;5092757;28;20032;-79
2022/03/03 05:28:15;;;;;;;26.55;13.20;;;;;;;;;;5092751;28;20028;-80
2022/03/03 05:30:51;;;;;;;27.92;13.43;;;;;;;;;;5093186;28;20028;-80
2022/03/03 05:33:23;;;;;;;24.95;12.68;;;;;;;;;;5092840;28;20031;-80
2022/03/03 05:35:55;;;;;;;27.80;12.52;;;;;;;;;;5093400;28;20028;-80
2022/03/03 05:41:10;;;;;;;24.55;12.43;;;;;;;;;;5092750;28;19944;-80
2022/03/03 05:43:38;;;;;;;24.48;12.70;;;;;;;;;;5092743;28;20048;-80
2022/03/03 05:46:07;;;;;;;24.10;12.60;;;;;;;;;;5092988;28;20024;-80
2022/03/03 05:48:35;;;;;;;24.58;12.88;;;;;;;;;;5090582;28;20067;-80
2022/03/03 05:51:06;;;;;;;25.75;13.23;;;;;;;;;;5092886;28;20016;-80
2022/03/03 05:53:35;;;;;;;26.67;13.52;;;;;;;;;;5092911;28;20023;-80
2022/03/03 05:56:06;;;;;;;24.38;12.68;;;;;;;;;;5092603;28;20028;-79
2022/03/03 05:58:45;;;;;;;30.50;14.65;;;;;;;;;;5092493;28;20031;-79
2022/03/03 06:01:21;;;;;;;27.90;13.15;;;;;;;;;;5092141;28;20028;-79
2022/03/03 06:03:50;;;;;;;25.75;13.18;;;;;;;;;;5092166;28;20020;-79
2022/03/03 06:06:19;;;;;;;28.33;12.50;;;;;;;;;;5092288;28;20024;-79
2022/03/03 06:09:07;;;;;;;25.75;12.30;;;;;;;;;;5091726;28;20024;-79
2022/03/03 06:11:36;;;;;;;29.77;12.70;;;;;;;;;;5092331;28;20170;-79
2022/03/03 06:14:29;;;;;;;28.45;12.88;;;;;;;;;;5090793;28;20040;-79
2022/03/03 06:17:18;;;;;;;29.92;12.68;;;;;;;;;;5091549;28;20440;-79
2022/03/03 06:19:46;;;;;;;23.50;11.10;;;;;;;;;;5009675;28;20139;-79
2022/03/03 06:22:16;;;;;;;26.20;12.45;;;;;;;;;;5009707;28;20030;-79
2022/03/03 06:24:45;;;;;;;23.52;12.13;;;;;;;;;;5010131;28;20038;-79
2022/03/03 06:27:17;;;;;;;26.27;12.25;;;;;;;;;;5009462;28;20033;-79
2022/03/03 06:35:55;;;;;;;21.77;11.52;;;;;;;;;;4932050;29;20036;-79
2022/03/03 06:38:23;;;;;;;21.90;11.73;;;;;;;;;;4931894;29;20079;-79
2022/03/03 06:40:55;;;;;;;27.48;12.48;;;;;;;;;;4932404;29;20047;-79
2022/03/03 06:43:27;;;;;;;24.25;11.88;;;;;;;;;;4932102;29;20046;-79
2022/03/03 06:45:56;;;;;;;23.27;11.68;;;;;;;;;;4932269;29;20122;-79
2022/03/03 06:51:38;;;;;;;20.92;10.98;;;;;;;;;;4916682;28;20032;-79
2022/03/03 06:57:12;;;;;;;22.38;10.68;;;;;;;;;;4940864;29;20520;-79
2022/03/03 06:59:47;;;;;;;26.02;11.43;;;;;;;;;;4954337;29;20035;-79
2022/03/03 07:02:26;;;;;;;22.52;11.75;;;;;;;;;;4954706;29;20040;-79
2022/03/03 07:04:55;;;;;;;22.83;12.13;;;;;;;;;;4954541;29;20041;-79
2022/03/03 07:07:36;;;;;;;22.77;11.88;;;;;;;;;;4954199;29;20027;-79
2022/03/03 07:10:02;;;;;;;18.02;9.13;;;;;;;;;;5006223;28;20372;-79
2022/03/03 07:12:51;;;;;;;25.60;11.90;;;;;;;;;;5050659;28;20461;-79
2022/03/03 07:15:17;;;;;;;21.45;11.45;;;;;;;;;;5071683;28;20479;-79
2022/03/03 07:17:45;;;;;;;20.73;11.18;;;;;;;;;;5072335;28;20046;-79
2022/03/03 07:20:16;;;;;;;21.80;11.00;;;;;;;;;;5072337;28;20040;-79
2022/03/03 07:23:03;;;;;;;22.38;10.95;;;;;;;;;;5060009;28;20045;-80
2022/03/03 07:25:46;;;;;;;22.27;10.68;;;;;;;;;;5052199;28;20061;-79
2022/03/03 07:28:15;;;;;;;18.20;10.27;;;;;;;;;;5063558;28;20036;-79
2022/03/03 07:30:49;;;;;;;18.65;10.45;;;;;;;;;;5074316;28;20024;-79
2022/03/03 07:33:44;;;;;;;18.48;10.57;;;;;;;;;;5074204;28;20025;-79
2022/03/03 07:36:25;;;;;;;17.00;9.60;;;;;;;;;;5074402;28;20067;-79
2022/03/03 07:42:24;;;;;;;21.13;10.77;;;;;;;;;;5031655;28;20133;-79
2022/03/03 07:44:50;;;;;;;20.25;10.20;;;;;;;;;;5031807;28;20047;-78
2022/03/03 07:47:32;;;;;;;20.75;10.90;;;;;;;;;;5047821;28;20069;-79
2022/03/03 07:49:58;;;;;;;21.77;10.87;;;;;;;;;;5037703;28;20033;-79
2022/03/03 07:52:25;;;;;;;19.63;10.60;;;;;;;;;;5041494;28;20120;-80
2022/03/03 07:55:00;;;;;;;18.15;10.20;;;;;;;;;;5041010;28;20487;-80
2022/03/03 07:57:33;;;;;;;23.60;10.90;;;;;;;;;;5042528;28;20036;-80
2022/03/03 08:00:14;;;;;;;19.92;10.70;;;;;;;;;;5046317;28;20048;-80
2022/03/03 08:05:46;;;;;;;18.70;10.95;;;;;;;;;;5010085;28;20095;-79
2022/03/03 08:08:14;;;;;;;27.20;11.20;;;;;;;;;;5010986;28;20045;-80
2022/03/03 08:10:41;;;;;;;18.10;10.73;;;;;;;;;;4994429;28;20361;-80
2022/03/03 08:13:09;;;;;;;18.35;10.70;;;;;;;;;;5011351;28;20172;-79
2022/03/03 08:15:38;;;;;;;20.38;11.30;;;;;;;;;;5008849;28;20141;-80
2022/03/03 08:18:16;;;;;;;18.30;10.20;;;;;;;;;;5013688;28;20578;-80
2022/03/03 08:20:47;;;;;;;20.80;10.68;;;;;;;;;;5049818;28;20171;-80
2022/03/03 08:23:27;;;;;;;;;;;;;;;;;;;;;
2022/03/03 08:26:19;;;;;;;19.95;10.32;;;;;;;;;;5050164;28;20029;-79
2022/03/03 08:28:45;;;;;;;20.38;10.65;;;;;;;;;;5048804;28;20041;-80
2022/03/03 08:31:17;;;;;;;18.95;10.60;;;;;;;;;;5051008;28;20025;-80
2022/03/03 08:33:49;;;;;;;17.58;10.45;;;;;;;;;;5051264;28;20021;-80
2022/03/03 08:36:19;;;;;;;20.52;10.50;;;;;;;;;;5050839;28;20037;-80
2022/03/03 08:38:56;;;;;;;18.58;10.25;;;;;;;;;;5050350;28;20033;-80
2022/03/03 08:41:24;;;;;;;17.98;10.00;;;;;;;;;;5052568;28;20029;-80
2022/03/03 08:43:52;;;;;;;18.58;10.23;;;;;;;;;;5090006;28;20059;-80
2022/03/03 08:46:23;;;;;;;19.92;9.65;;;;;;;;;;5091968;28;20111;-80
2022/03/03 08:48:59;;;;;;;16.58;9.73;;;;;;;;;;5092609;28;20032;-76
2022/03/03 08:51:25;;;;;;;20.50;9.90;;;;;;;;;;5092429;28;20050;-80
2022/03/03 08:53:51;;;;;;;17.30;9.48;;;;;;;;;;5093353;28;20020;-80
2022/03/03 08:56:18;;;;;;;17.38;10.10;;;;;;;;;;5091942;28;20048;-81
2022/03/03 08:58:53;;;;;;;20.17;10.00;;;;;;;;;;5092936;28;20110;-80
2022/03/03 09:01:19;;;;;;;18.10;10.35;;;;;;;;;;5091979;28;20028;-77
2022/03/03 09:03:53;;;;;;;15.95;8.85;;;;;;;;;;5091712;28;20024;-76
2022/03/03 09:06:25;;;;;;;15.93;9.30;;;;;;;;;;5091807;28;20110;-76
2022/03/03 09:08:53;;;;;;;17.45;9.10;;;;;;;;;;5090788;28;20040;-77
2022/03/03 09:11:22;;;;;;;15.43;9.48;;;;;;;;;;5092044;28;20447;-77
2022/03/03 09:13:57;;;;;;;18.85;9.95;;;;;;;;;;5090016;28;20024;-77
2022/03/03 09:16:31;;;;;;;17.45;9.68;;;;;;;;;;5091196;28;20028;-76
2022/03/03 09:19:00;;;;;;;21.85;9.27;;;;;;;;;;5092025;28;20073;-80
2022/03/03 09:21:28;;;;;;;17.40;9.60;;;;;;;;;;5091586;28;20080;-80
2022/03/03 09:23:56;;;;;;;17.38;8.95;;;;;;;;;;5073775;28;20422;-78
2022/03/03 09:26:28;;;;;;;17.05;9.18;;;;;;;;;;5088509;28;20118;-75
2022/03/03 09:29:00;;;;;;;15.85;9.27;;;;;;;;;;5089245;28;20024;-74
2022/03/03 09:31:29;;;;;;;14.05;8.70;;;;;;;;;;5088991;28;20024;-75
2022/03/03 09:33:58;;;;;;;17.10;9.13;;;;;;;;;;5090662;28;20099;-75
2022/03/03 09:36:29;;;;;;;19.70;9.88;;;;;;;;;;5091900;28;20020;-75
2022/03/03 09:39:01;;;;;;;14.13;8.52;;;;;;;;;;5091719;28;20043;-75
2022/03/03 09:41:27;;;;;;;14.15;8.45;;;;;;;;;;5091895;28;20557;-75
2022/03/03 09:43:56;;;;;;;18.40;8.63;;;;;;;;;;5091346;28;20543;-75
2022/03/03 09:46:25;;;;;;;18.85;9.15;;;;;;;;;;5088638;28;20027;-75
2022/03/03 09:48:51;;;;;;;16.15;8.95;;;;;;;;;;5071089;28;20534;-75
2022/03/03 09:51:20;;;;;;;16.77;9.32;;;;;;;;;;5071205;28;20187;-75
2022/03/03 09:53:51;;;;;;;13.88;8.68;;;;;;;;;;5071117;28;20020;-75
2022/03/03 09:56:19;;;;;;;25.08;8.52;;;;;;;;;;5071372;28;20319;-75
2022/03/03 09:58:48;;;;;;;14.57;8.38;;;;;;;;;;5071442;28;20498;-75
2022/03/03 10:01:17;;;;;;;16.27;8.32;;;;;;;;;;5071436;28;20510;-75
2022/03/03 10:03:47;;;;;;;16.80;7.82;;;;;;;;;;5073651;28;20120;-75
2022/03/03 10:06:13;;;;;;;14.27;8.27;;;;;;;;;;5091643;28;20501;-75
2022/03/03 10:08:39;;;;;;;18.23;7.90;;;;;;;;;;5091445;28;20459;-75
2022/03/03 10:11:13;;;;;;;12.75;8.10;;;;;;;;;;5091504;28;20552;-75
2022/03/03 10:13:53;;;;;;;13.63;8.50;;;;;;;;;;5091560;28;20440;-75
2022/03/03 10:16:28;;;;;;;14.80;8.20;;;;;;;;;;5087409;28;20021;-75
2022/03/03 10:19:20;;;;;;;14.90;8.10;;;;;;;;;;5077722;28;20419;-75
2022/03/03 10:21:52;;;;;;;16.30;8.43;;;;;;;;;;5035211;28;20057;-75
2022/03/03 10:24:24;;;;;;;13.30;7.97;;;;;;;;;;5052810;28;20406;-75
2022/03/03 10:27:07;;;;;;;13.88;7.80;;;;;;;;;;5052747;28;20460;-75
2022/03/03 10:29:49;;;;;;;14.82;7.93;;;;;;;;;;5052636;28;20021;-75
2022/03/03 10:32:25;;;;;;;14.15;8.45;;;;;;;;;;5052686;28;20075;-75
2022/03/03 10:35:10;;;;;;;15.80;7.78;;;;;;;;;;5052688;28;20417;-75
2022/03/03 10:37:36;;;;;;;15.45;7.78;;;;;;;;;;5052588;28;20448;-75
2022/03/03 10:40:08;;;;;;;16.55;8.18;;;;;;;;;;5052558;28;20041;-75
2022/03/03 10:42:37;;;;;;;12.80;7.47;;;;;;;;;;5052391;28;20060;-75
2022/03/03 10:45:15;;;;;;;13.38;7.80;;;;;;;;;;5051763;28;20419;-75
2022/03/03 10:47:47;;;;;;;14.98;8.30;;;;;;;;;;5038688;28;20143;-75
2022/03/03 10:50:13;;;;;;;;;;;;;;;;;;5032765;28;20160;-76
2022/03/03 10:52:40;;;;;;;13.20;7.38;;;;;;;;;;5030740;28;19999;-75
2022/03/03 10:55:35;;;;;;;12.13;7.40;;;;;;;;;;5058766;28;20102;-76
2022/03/03 10:58:04;;;;;;;11.48;6.18;;;;;;;;;;5039568;28;20040;-76
2022/03/03 11:00:34;;;;;;;11.20;6.32;;;;;;;;;;5073727;28;20033;-76
2022/03/03 11:03:08;;;;;;;10.00;5.70;;;;;;;;;;5074199;28;20054;-76
2022/03/03 11:05:34;;;;;;;10.52;5.88;;;;;;;;;;5074307;28;20025;-75
2022/03/03 11:08:00;;;;;;;12.57;6.03;;;;;;;;;;5073842;28;20036;-76
2022/03/03 11:10:29;;;;;;;11.05;6.45;;;;;;;;;;5073543;28;20016;-76
2022/03/03 11:12:58;;;;;;;10.75;6.28;;;;;;;;;;5073871;28;20051;-76
2022/03/03 11:15:34;;;;;;;12.32;5.93;;;;;;;;;;5073644;28;20021;-76
2022/03/03 11:18:03;;;;;;;12.55;6.65;;;;;;;;;;5073943;28;20102;-76
2022/03/03 11:20:38;;;;;;;14.07;6.90;;;;;;;;;;5073991;28;20024;-76
2022/03/03 11:23:09;;;;;;;11.55;6.95;;;;;;;;;;5073865;28;20032;-76
2022/03/03 11:25:38;;;;;;;10.67;6.80;;;;;;;;;;5073943;28;20032;-76
2022/03/03 11:28:15;;;;;;;11.75;6.47;;;;;;;;;;5073966;28;20113;-76
2022/03/03 11:30:43;;;;;;;14.52;6.88;;;;;;;;;;5074064;28;20378;-76
2022/03/03 11:33:22;;;;;;;11.88;6.82;;;;;;;;;;5073389;28;20464;-75
2022/03/03 11:35:58;;;;;;;12.00;7.03;;;;;;;;;;5073618;28;20028;-76
2022/03/03 11:38:29;;;;;;;13.23;7.30;;;;;;;;;;5071894;28;20078;-75
2022/03/03 11:41:03;;;;;;;9.17;6.90;;;;;;;;;;5073259;28;20036;-75
2022/03/03 11:43:30;;;;;;;10.95;6.38;;;;;;;;;;5083633;28;20050;-75
2022/03/03 11:45:59;;;;;;;11.25;7.00;;;;;;;;;;5093378;28;20101;-75
2022/03/03 11:48:37;;;;;;;18.85;6.80;;;;;;;;;;5093225;28;20050;-74
2022/03/03 11:51:23;;;;;;;11.48;7.00;;;;;;;;;;5093455;28;20020;-75
2022/03/03 11:54:00;;;;;;;10.43;6.95;;;;;;;;;;5090516;28;20032;-75
2022/03/03 11:56:26;;;;;;;11.52;7.30;;;;;;;;;;5093164;28;20020;-75
2022/03/03 11:59:12;;;;;;;12.75;7.50;;;;;;;;;;5093352;28;20027;-75
2022/03/03 12:01:57;;;;;;;12.05;7.57;;;;;;;;;;5086218;28;20048;-75
2022/03/03 12:04:26;;;;;;;12.10;7.50;;;;;;;;;;5093126;28;20064;-75
2022/03/03 12:06:54;;;;;;;13.13;7.50;;;;;;;;;;5093048;28;20478;-75
2022/03/03 12:09:26;;;;;;;12.05;7.43;;;;;;;;;;5092829;28;20067;-75
2022/03/03 12:12:19;;;;;;;12.85;7.85;;;;;;;;;;5090892;28;20386;-75
2022/03/03 12:14:58;;;;;;;13.13;7.78;;;;;;;;;;5092360;28;20090;-75
2022/03/03 12:17:46;;;;;;;12.90;7.88;;;;;;;;;;5092469;28;20181;-75
2022/03/03 12:20:24;;;;;;;12.15;7.63;;;;;;;;;;5087848;28;20047;-76
2022/03/03 12:23:07;;;;;;;15.85;8.43;;;;;;;;;;5091203;28;20057;-75
2022/03/03 12:26:08;;;;;;;12.43;8.38;;;;;;;;;;5091762;28;20102;-75
2022/03/03 12:28:35;;;;;;;13.57;7.47;;;;;;;;;;5072637;28;20035;-75
2022/03/03 12:31:20;;;;;;;12.05;8.30;;;;;;;;;;5072624;28;20031;-75
2022/03/03 12:33:59;;;;;;;12.60;7.97;;;;;;;;;;5081230;28;20183;-75
2022/03/03 12:36:25;;;;;;;12.68;8.18;;;;;;;;;;5093145;28;20095;-75
2022/03/03 12:39:06;;;;;;;12.95;7.90;;;;;;;;;;5072029;28;20106;-75
2022/03/03 12:41:33;;;;;;;15.32;8.20;;;;;;;;;;5070729;28;20025;-75
2022/03/03 12:44:09;;;;;;;12.90;8.63;;;;;;;;;;5070099;28;20402;-75
2022/03/03 12:46:41;;;;;;;14.20;8.68;;;;;;;;;;5083466;28;20062;-75
2022/03/03 12:49:10;;;;;;;11.63;8.15;;;;;;;;;;5089817;28;20020;-75
2022/03/03 12:51:45;;;;;;;12.65;8.32;;;;;;;;;;5092548;28;20636;-75
2022/03/03 12:54:20;;;;;;;12.55;8.18;;;;;;;;;;5092202;28;20052;-75
2022/03/03 12:57:04;;;;;;;13.45;8.70;;;;;;;;;;5092357;28;20497;-75
2022/03/03 12:59:37;;;;;;;12.60;8.40;;;;;;;;;;5092315;28;20024;-75
2022/03/03 13:02:09;;;;;;;15.52;9.20;;;;;;;;;;5092405;28;20024;-75
2022/03/03 13:04:35;;;;;;;;;;;;;;;;;;5092841;28;20020;-75
2022/03/03 13:07:06;;;;;;;13.27;8.93;;;;;;;;;;5092209;28;19953;-75
2022/03/03 13:09:52;;;;;;;13.25;8.93;;;;;;;;;;5092064;28;20540;-75
2022/03/03 13:12:24;;;;;;;15.73;9.02;;;;;;;;;;5092448;28;20028;-76
2022/03/03 13:14:57;;;;;;;12.82;8.93;;;;;;;;;;5092174;28;20031;-76
2022/03/03 13:17:29;;;;;;;13.05;8.82;;;;;;;;;;5090765;28;20089;-75
2022/03/03 13:19:57;;;;;;;12.68;8.43;;;;;;;;;;5091877;28;20039;-75
2022/03/03 13:22:26;;;;;;;12.48;8.60;;;;;;;;;;5092078;28;20099;-75
2022/03/03 13:25:12;;;;;;;15.40;8.77;;;;;;;;;;5091898;28;20032;-76
2022/03/03 13:27:50;;;;;;;13.88;9.02;;;;;;;;;;5091625;28;20028;-76
2022/03/03 13:30:26;;;;;;;12.73;8.32;;;;;;;;;;5091779;28;20198;-76
2022/03/03 13:32:56;;;;;;;15.23;8.57;;;;;;;;;;5092169;28;20055;-76
2022/03/03 13:35:23;;;;;;;11.57;8.23;;;;;;;;;;5091796;28;20385;-75
2022/03/03 13:37:52;;;;;;;14.70;8.52;;;;;;;;;;5091876;28;20082;-76
2022/03/03 13:40:23;;;;;;;15.20;9.43;;;;;;;;;;5091841;28;20103;-76
2022/03/03 13:42:58;;;;;;;16.58;8.13;;;;;;;;;;5091539;28;20140;-76
2022/03/03 13:45:26;;;;;;;12.32;8.02;;;;;;;;;;5091568;28;20073;-75
2022/03/03 13:48:13;;;;;;;10.68;7.43;;;;;;;;;;5088538;28;20036;-75
2022/03/03 13:50:48;;;;;;;10.88;7.43;;;;;;;;;;5090049;28;20020;-76
2022/03/03 13:53:26;;;;;;;11.60;7.80;;;;;;;;;;5089018;28;20024;-76
2022/03/03 13:56:12;;;;;;;11.75;8.07;;;;;;;;;;5092778;28;20085;-76
2022/03/03 13:58:41;;;;;;;13.57;7.97;;;;;;;;;;5095907;28;20097;-76
2022/03/03 14:01:09;;;;;;;16.40;7.97;;;;;;;;;;5095592;28;20039;-76
2022/03/03 14:03:42;;;;;;;16.45;8.77;;;;;;;;;;5094495;28;20024;-76
2022/03/03 14:06:11;;;;;;;12.80;7.43;;;;;;;;;;5095592;28;20012;-76
2022/03/03 14:08:45;;;;;;;12.60;8.75;;;;;;;;;;5095645;28;20109;-76
2022/03/03 14:11:12;;;;;;;8.57;6.28;;;;;;;;;;5094200;28;20111;-76
2022/03/03 14:13:45;;;;;;;10.27;6.90;;;;;;;;;;5095373;28;20473;-76
2022/03/03 14:16:11;;;;;;;;;;;;;;;;;;5095589;28;20048;-76
2022/03/03 14:18:37;;;;;;;9.75;6.72;;;;;;;;;;5095200;28;20341;-76
2022/03/03 14:21:07;;;;;;;10.63;6.65;;;;;;;;;;5095233;28;20016;-75
2022/03/03 14:23:34;;;;;;;9.05;7.13;;;;;;;;;;5095501;28;20056;-76
2022/03/03 14:26:01;;;;;;;9.95;6.72;;;;;;;;;;5095107;28;20036;-76
2022/03/03 14:28:33;;;;;;;8.38;6.90;;;;;;;;;;5091503;28;20142;-76
2022/03/03 14:31:02;;;;;;;12.10;7.63;;;;;;;;;;5093506;28;20467;-76
2022/03/03 14:33:31;;;;;;;9.85;7.10;;;;;;;;;;5092146;28;20112;-76
2022/03/03 14:35:58;;;;;;;11.57;7.40;;;;;;;;;;5093785;28;20028;-76
2022/03/03 14:38:25;;;;;;;8.63;7.38;;;;;;;;;;5094248;28;20107;-77
2022/03/03 14:40:51;;;;;;;9.88;7.93;;;;;;;;;;5094562;28;20031;-74
2022/03/03 14:43:18;;;;;;;12.68;7.28;;;;;;;;;;5095391;28;20115;-74
2022/03/03 14:45:45;;;;;;;8.20;7.00;;;;;;;;;;5095836;28;20052;-77
2022/03/03 14:48:14;;;;;;;11.18;7.40;;;;;;;;;;5092698;28;20030;-74
2022/03/03 14:50:42;;;;;;;8.77;7.10;;;;;;;;;;5093934;28;20039;-74
2022/03/03 14:53:08;;;;;;;13.70;7.78;;;;;;;;;;5091833;28;20020;-76
2022/03/03 14:55:37;;;;;;;11.27;7.10;;;;;;;;;;5094282;28;20024;-76
2022/03/03 14:58:03;;;;;;;8.55;6.93;;;;;;;;;;5094449;28;20450;-74
2022/03/03 15:00:32;;;;;;;11.20;7.20;;;;;;;;;;5093792;28;20035;-77
2022/03/03 15:03:03;;;;;;;12.85;6.82;;;;;;;;;;5091724;28;20035;-78
2022/03/03 15:05:29;;;;;;;10.35;6.97;;;;;;;;;;5094435;28;20028;-76
2022/03/03 15:08:01;;;;;;;13.30;7.32;;;;;;;;;;5093326;28;20107;-76
2022/03/03 15:10:28;;;;;;;12.43;7.50;;;;;;;;;;5094348;28;20021;-76
2022/03/03 15:12:56;;;;;;;12.13;7.40;;;;;;;;;;5094163;28;20069;-76
2022/03/03 15:15:25;;;;;;;11.35;6.95;;;;;;;;;;5094413;28;20406;-76
2022/03/03 15:17:51;;;;;;;9.43;7.00;;;;;;;;;;5094366;28;20060;-76
2022/03/03 15:20:22;;;;;;;8.73;7.22;;;;;;;;;;5094776;28;20016;-77